createdAt,value
2018-11-26T00:01:47.573Z,1.40
2018-11-26T00:04:16.009Z,1.50
2018-11-26T00:06:44.437Z,1.50
2018-11-26T00:09:12.865Z,1.60
2018-11-26T00:11:41.290Z,1.60
2018-11-26T00:14:09.713Z,1.60
2018-11-26T00:16:38.148Z,1.60
2018-11-26T00:19:06.666Z,1.70
2018-11-26T00:21:35.196Z,1.60
2018-11-26T00:24:03.634Z,1.60
2018-11-26T00:26:32.121Z,1.50
2018-11-26T00:29:00.533Z,1.50
2018-11-26T00:31:28.953Z,1.50
2018-11-26T00:33:57.401Z,1.50
2018-11-26T00:36:25.828Z,1.50
2018-11-26T00:38:54.240Z,1.50
2018-11-26T00:41:22.674Z,1.60
2018-11-26T00:43:51.187Z,1.60
2018-11-26T00:46:20.735Z,1.60
2018-11-26T00:48:48.073Z,1.50
2018-11-26T00:51:16.496Z,1.50
2018-11-26T00:53:44.893Z,1.50
2018-11-26T00:56:13.288Z,1.50
2018-11-26T00:58:41.709Z,1.50
2018-11-26T01:01:10.137Z,1.60
2018-11-26T01:03:38.577Z,1.60
2018-11-26T01:06:07.037Z,1.50
2018-11-26T01:08:35.489Z,1.50
2018-11-26T01:11:03.953Z,1.40
2018-11-26T01:13:32.376Z,1.40
2018-11-26T01:16:00.771Z,1.40
2018-11-26T01:18:29.219Z,1.40
2018-11-26T01:20:57.632Z,1.40
2018-11-26T01:23:26.053Z,1.40
2018-11-26T01:25:54.473Z,1.40
2018-11-26T01:28:22.885Z,1.40
2018-11-26T01:30:51.291Z,1.30
2018-11-26T01:33:19.717Z,1.30
2018-11-26T01:35:48.107Z,1.30
2018-11-26T01:38:16.532Z,1.30
2018-11-26T01:40:51.446Z,1.30
2018-11-26T01:43:20.677Z,1.30
2018-11-26T01:45:49.082Z,1.30
2018-11-26T01:48:17.508Z,1.30
2018-11-26T01:50:45.919Z,1.20
2018-11-26T01:53:14.349Z,1.30
2018-11-26T01:55:42.755Z,1.30
2018-11-26T01:58:11.184Z,1.30
2018-11-26T02:00:39.606Z,1.30
2018-11-26T02:03:08.052Z,1.20
2018-11-26T02:05:36.721Z,1.20
2018-11-26T02:08:05.717Z,1.20
2018-11-26T02:10:34.145Z,1.20
2018-11-26T02:13:02.553Z,1.30
2018-11-26T02:15:38.014Z,1.40
2018-11-26T02:18:07.214Z,1.50
2018-11-26T02:20:35.637Z,1.60
2018-11-26T02:23:04.041Z,1.80
2018-11-26T02:25:32.485Z,1.80
2018-11-26T02:28:00.883Z,1.90
2018-11-26T02:30:29.300Z,1.90
2018-11-26T02:32:57.705Z,1.90
2018-11-26T02:35:26.116Z,1.90
2018-11-26T02:37:54.703Z,1.80
2018-11-26T02:40:28.336Z,1.60
2018-11-26T02:42:56.763Z,1.50
2018-11-26T02:45:25.188Z,1.30
2018-11-26T02:47:53.594Z,1.30
2018-11-26T02:50:22.024Z,1.20
2018-11-26T02:52:50.415Z,1.20
2018-11-26T02:55:18.865Z,1.10
2018-11-26T02:57:47.308Z,1.10
2018-11-26T03:00:15.758Z,1.00
2018-11-26T03:02:44.213Z,1.00
2018-11-26T03:05:13.829Z,0.90
2018-11-26T03:07:42.249Z,0.90
2018-11-26T03:10:10.973Z,0.90
2018-11-26T03:12:39.696Z,0.90
2018-11-26T03:15:10.073Z,0.90
2018-11-26T03:17:39.168Z,0.90
2018-11-26T03:20:08.873Z,0.90
2018-11-26T03:22:37.301Z,0.90
2018-11-26T03:25:07.295Z,0.90
2018-11-26T03:27:35.737Z,1.00
2018-11-26T03:30:06.223Z,1.10
2018-11-26T03:32:34.633Z,1.20
2018-11-26T03:35:03.057Z,1.10
2018-11-26T03:37:31.477Z,1.00
2018-11-26T03:39:59.872Z,1.00
2018-11-26T03:42:28.305Z,1.00
2018-11-26T03:44:56.744Z,1.00
2018-11-26T03:47:25.176Z,1.00
2018-11-26T03:49:53.570Z,1.00
2018-11-26T03:52:21.999Z,1.10
2018-11-26T03:54:50.433Z,1.20
2018-11-26T03:57:18.875Z,1.30
2018-11-26T03:59:47.279Z,1.50
2018-11-26T04:02:15.688Z,1.60
2018-11-26T04:04:44.091Z,1.60
2018-11-26T04:07:12.517Z,1.70
2018-11-26T04:09:40.961Z,1.70
2018-11-26T04:12:09.409Z,1.80
2018-11-26T04:14:37.824Z,1.90
2018-11-26T04:17:06.648Z,2.00
2018-11-26T04:19:35.072Z,2.10
2018-11-26T04:22:03.491Z,2.10
2018-11-26T04:24:31.917Z,2.20
2018-11-26T04:27:00.309Z,2.30
2018-11-26T04:29:28.733Z,2.30
2018-11-26T04:31:57.133Z,2.30
2018-11-26T04:34:25.549Z,2.30
2018-11-26T04:36:53.945Z,2.40
2018-11-26T04:39:22.365Z,2.40
2018-11-26T04:41:50.754Z,2.50
2018-11-26T04:44:19.193Z,2.50
2018-11-26T04:46:47.634Z,2.40
2018-11-26T04:49:16.069Z,2.50
2018-11-26T04:51:44.512Z,2.60
2018-11-26T04:54:12.997Z,2.60
2018-11-26T04:56:41.433Z,2.70
2018-11-26T04:59:09.865Z,2.80
2018-11-26T05:01:38.278Z,2.80
2018-11-26T05:04:07.022Z,2.80
2018-11-26T05:06:35.413Z,2.90
2018-11-26T05:09:04.528Z,2.80
2018-11-26T05:11:32.913Z,2.80
2018-11-26T05:14:01.339Z,2.80
2018-11-26T05:16:29.725Z,2.90
2018-11-26T05:18:58.112Z,2.90
2018-11-26T05:21:26.517Z,3.00
2018-11-26T05:23:54.920Z,3.00
2018-11-26T05:26:23.317Z,3.10
2018-11-26T05:28:51.695Z,3.10
2018-11-26T05:31:20.105Z,3.10
2018-11-26T05:33:48.494Z,3.10
2018-11-26T05:36:16.944Z,3.10
2018-11-26T05:38:45.379Z,3.20
2018-11-26T05:41:13.785Z,3.20
2018-11-26T05:43:42.216Z,3.20
2018-11-26T05:46:10.620Z,3.20
2018-11-26T05:48:39.009Z,3.30
2018-11-26T05:51:07.452Z,3.40
2018-11-26T05:53:35.829Z,3.40
2018-11-26T05:56:04.286Z,3.50
2018-11-26T05:58:32.725Z,3.60
2018-11-26T06:01:01.133Z,3.50
2018-11-26T06:03:29.559Z,3.50
2018-11-26T06:05:57.980Z,3.50
2018-11-26T06:08:26.363Z,3.60
2018-11-26T06:10:54.810Z,3.60
2018-11-26T06:13:23.232Z,3.60
2018-11-26T06:15:51.664Z,3.60
2018-11-26T06:18:20.082Z,3.60
2018-11-26T06:20:48.497Z,3.50
2018-11-26T06:23:16.880Z,3.50
2018-11-26T06:25:45.299Z,3.60
2018-11-26T06:28:13.688Z,3.60
2018-11-26T06:30:42.071Z,3.60
2018-11-26T06:33:10.481Z,3.60
2018-11-26T06:35:38.865Z,3.60
2018-11-26T06:38:08.339Z,3.60
2018-11-26T06:40:36.796Z,3.60
2018-11-26T06:43:05.795Z,3.70
2018-11-26T06:45:34.521Z,3.60
2018-11-26T06:48:03.073Z,3.60
2018-11-26T06:50:31.474Z,3.50
2018-11-26T06:52:59.876Z,3.50
2018-11-26T06:55:28.268Z,3.50
2018-11-26T06:57:56.672Z,3.50
2018-11-26T07:00:25.160Z,3.60
2018-11-26T07:02:53.620Z,3.60
2018-11-26T07:05:22.831Z,3.60
2018-11-26T07:07:51.298Z,3.50
2018-11-26T07:10:20.664Z,3.60
2018-11-26T07:12:49.092Z,3.50
2018-11-26T07:15:19.011Z,3.50
2018-11-26T07:17:47.436Z,3.50
2018-11-26T07:20:16.785Z,3.50
2018-11-26T07:22:45.233Z,3.50
2018-11-26T07:25:14.776Z,3.60
2018-11-26T07:27:44.223Z,3.60
2018-11-26T07:30:28.905Z,3.60
2018-11-26T07:32:57.337Z,3.60
2018-11-26T07:35:25.736Z,3.60
2018-11-26T07:37:54.125Z,3.60
2018-11-26T07:40:23.418Z,3.70
2018-11-26T07:42:58.460Z,3.70
2018-11-26T07:45:26.944Z,3.70
2018-11-26T07:47:55.407Z,3.80
2018-11-26T07:50:23.827Z,3.80
2018-11-26T07:52:52.232Z,3.80
2018-11-26T07:55:21.419Z,3.80
2018-11-26T07:57:50.133Z,3.80
2018-11-26T08:00:19.873Z,3.80
2018-11-26T08:02:48.658Z,3.80
2018-11-26T08:05:18.185Z,3.90
2018-11-26T08:07:46.615Z,3.90
2018-11-26T08:10:21.916Z,3.90
2018-11-26T08:12:51.344Z,3.90
2018-11-26T08:15:20.848Z,4.00
2018-11-26T08:17:49.272Z,4.10
2018-11-26T08:20:17.735Z,4.10
2018-11-26T08:22:46.181Z,4.10
2018-11-26T08:25:15.897Z,4.20
2018-11-26T08:27:45.113Z,4.20
2018-11-26T08:30:17.473Z,4.30
2018-11-26T08:32:47.059Z,4.30
2018-11-26T08:35:16.249Z,4.30
2018-11-26T08:37:50.076Z,4.30
2018-11-26T08:40:25.933Z,4.40
2018-11-26T08:45:06.554Z,4.40
2018-11-26T08:47:40.393Z,4.50
2018-11-26T08:50:09.622Z,4.50
2018-11-26T08:52:38.148Z,4.60
2018-11-26T08:55:08.097Z,4.70
2018-11-26T08:57:36.524Z,4.80
2018-11-26T09:00:05.800Z,4.80
2018-11-26T09:02:38.425Z,4.90
2018-11-26T09:05:11.825Z,4.90
2018-11-26T09:07:40.244Z,4.90
2018-11-26T09:10:08.820Z,4.90
2018-11-26T09:12:37.234Z,5.00
2018-11-26T09:15:06.609Z,5.10
2018-11-26T09:17:35.014Z,5.10
2018-11-26T09:20:03.488Z,5.10
2018-11-26T09:22:31.944Z,5.10
2018-11-26T09:25:00.316Z,5.10
2018-11-26T09:27:28.718Z,5.10
2018-11-26T09:29:57.096Z,5.20
2018-11-26T09:32:25.509Z,5.20
2018-11-26T09:34:53.908Z,5.30
2018-11-26T09:37:22.320Z,5.30
2018-11-26T09:39:50.702Z,5.40
2018-11-26T09:42:19.083Z,5.40
2018-11-26T09:44:47.501Z,5.50
2018-11-26T09:47:15.897Z,5.50
2018-11-26T09:49:44.309Z,5.60
2018-11-26T09:52:12.748Z,5.70
2018-11-26T09:54:41.179Z,5.80
2018-11-26T09:57:09.585Z,5.80
2018-11-26T09:59:38.001Z,5.90
2018-11-26T10:02:07.562Z,5.80
2018-11-26T10:04:34.894Z,5.80
2018-11-26T10:07:03.280Z,5.90
2018-11-26T10:09:31.685Z,5.90
2018-11-26T10:12:00.075Z,5.90
2018-11-26T10:14:28.484Z,6.00
2018-11-26T10:16:56.873Z,6.00
2018-11-26T10:19:25.320Z,5.90
2018-11-26T10:21:53.712Z,5.90
2018-11-26T10:24:22.125Z,6.00
2018-11-26T10:26:50.517Z,6.00
2018-11-26T10:29:18.969Z,6.10
2018-11-26T10:31:47.349Z,6.10
2018-11-26T10:34:15.769Z,6.20
2018-11-26T10:36:44.141Z,6.20
2018-11-26T10:39:12.533Z,6.10
2018-11-26T10:41:40.951Z,6.10
2018-11-26T10:44:09.356Z,6.10
2018-11-26T10:46:37.758Z,6.00
2018-11-26T10:49:06.161Z,5.90
2018-11-26T10:51:34.805Z,5.90
2018-11-26T10:54:04.128Z,5.90
2018-11-26T10:56:32.577Z,5.90
2018-11-26T10:59:00.960Z,5.80
2018-11-26T11:01:34.675Z,5.70
2018-11-26T11:04:03.241Z,5.80
2018-11-26T11:06:31.704Z,5.70
2018-11-26T11:09:01.132Z,5.70
2018-11-26T11:11:29.589Z,5.70
2018-11-26T11:13:57.972Z,5.70
2018-11-26T11:16:26.448Z,5.70
2018-11-26T11:18:54.913Z,5.80
2018-11-26T11:21:23.321Z,5.80
2018-11-26T11:23:51.724Z,5.80
2018-11-26T11:26:20.149Z,5.80
2018-11-26T11:28:48.547Z,5.90
2018-11-26T11:31:16.965Z,5.90
2018-11-26T11:33:45.367Z,5.90
2018-11-26T11:36:13.778Z,5.90
2018-11-26T11:38:42.178Z,5.90
2018-11-26T11:41:10.622Z,5.90
2018-11-26T11:43:39.023Z,5.80
2018-11-26T11:46:07.487Z,5.90
2018-11-26T11:48:35.890Z,5.80
2018-11-26T11:51:04.372Z,5.80
2018-11-26T11:53:32.778Z,5.80
2018-11-26T11:56:01.221Z,5.80
2018-11-26T11:58:29.658Z,5.80
2018-11-26T12:00:58.106Z,5.80
2018-11-26T12:03:26.498Z,5.80
2018-11-26T12:05:54.913Z,5.80
2018-11-26T12:08:23.330Z,5.80
2018-11-26T12:10:51.766Z,5.80
2018-11-26T12:13:20.166Z,5.80
2018-11-26T12:15:51.359Z,5.70
2018-11-26T12:18:19.778Z,5.70
2018-11-26T12:20:48.194Z,5.70
2018-11-26T12:23:16.604Z,5.80
2018-11-26T12:25:45.023Z,5.80
2018-11-26T12:28:13.486Z,5.80
2018-11-26T12:30:44.682Z,5.90
2018-11-26T12:33:13.105Z,5.80
2018-11-26T12:35:41.546Z,5.90
2018-11-26T12:38:09.954Z,5.90
2018-11-26T12:40:38.360Z,5.90
2018-11-26T12:43:07.220Z,5.80
2018-11-26T12:45:35.846Z,5.80
2018-11-26T12:48:04.331Z,5.90
2018-11-26T12:50:32.730Z,5.90
2018-11-26T12:53:01.210Z,5.80
2018-11-26T12:55:29.649Z,5.80
2018-11-26T12:57:58.587Z,5.80
2018-11-26T13:00:28.018Z,5.80
2018-11-26T13:03:00.869Z,5.80
2018-11-26T13:05:29.300Z,5.80
2018-11-26T13:07:57.721Z,5.80
2018-11-26T13:10:26.118Z,5.70
2018-11-26T13:12:54.538Z,5.60
2018-11-26T13:15:25.243Z,5.60
2018-11-26T13:17:53.670Z,5.60
2018-11-26T13:20:25.758Z,5.60
2018-11-26T13:22:54.634Z,5.50
2018-11-26T13:25:24.183Z,5.50
2018-11-26T13:27:53.714Z,5.50
2018-11-26T13:30:24.223Z,5.50
2018-11-26T13:32:54.050Z,5.50
2018-11-26T13:35:22.481Z,5.50
2018-11-26T13:37:50.898Z,5.50
2018-11-26T13:40:19.857Z,5.50
2018-11-26T13:42:48.363Z,5.40
2018-11-26T13:45:34.574Z,5.40
2018-11-26T13:48:03.687Z,5.40
2018-11-26T13:50:34.693Z,5.30
2018-11-26T13:53:03.146Z,5.30
2018-11-26T13:55:31.558Z,5.30
2018-11-26T13:57:59.935Z,5.30
2018-11-26T14:00:28.378Z,5.30
2018-11-26T14:02:56.777Z,5.30
2018-11-26T14:05:25.214Z,5.20
2018-11-26T14:07:53.609Z,5.20
2018-11-26T14:10:24.050Z,5.20
2018-11-26T14:13:23.401Z,5.20
2018-11-26T14:15:51.857Z,5.20
2018-11-26T14:18:20.414Z,5.20
2018-11-26T14:20:48.814Z,5.10
2018-11-26T14:23:17.219Z,5.10
2018-11-26T14:25:45.657Z,5.10
2018-11-26T14:28:14.058Z,5.10
2018-11-26T14:30:42.498Z,5.20
2018-11-26T14:33:11.301Z,5.20
2018-11-26T14:35:39.797Z,5.20
2018-11-26T14:38:09.151Z,5.20
2018-11-26T14:40:39.298Z,5.10
2018-11-26T14:43:07.721Z,5.10
2018-11-26T14:45:36.137Z,5.00
2018-11-26T14:48:04.747Z,5.00
2018-11-26T14:50:33.163Z,4.90
2018-11-26T14:53:04.307Z,5.00
2018-11-26T14:55:34.324Z,4.90
2018-11-26T14:58:02.724Z,4.90
2018-11-26T15:00:31.134Z,4.90
2018-11-26T15:02:59.530Z,4.90
2018-11-26T15:05:27.957Z,4.80
2018-11-26T15:07:56.355Z,4.80
2018-11-26T15:10:25.466Z,4.80
2018-11-26T15:12:53.858Z,4.80
2018-11-26T15:15:24.045Z,4.70
2018-11-26T15:17:52.483Z,4.70
2018-11-26T15:20:22.239Z,4.70
2018-11-26T15:22:51.306Z,4.70
2018-11-26T15:25:21.804Z,4.70
2018-11-26T15:27:51.018Z,4.60
2018-11-26T15:30:20.467Z,4.60
2018-11-26T15:32:49.015Z,4.60
2018-11-26T15:35:18.513Z,4.60
2018-11-26T15:37:46.985Z,4.50
2018-11-26T15:40:16.465Z,4.50
2018-11-26T15:42:44.898Z,4.50
2018-11-26T15:45:16.481Z,4.50
2018-11-26T15:47:45.006Z,4.50
2018-11-26T15:50:13.397Z,4.40
2018-11-26T15:52:41.846Z,4.40
2018-11-26T15:55:11.789Z,4.40
2018-11-26T15:57:40.230Z,4.40
2018-11-26T16:00:13.943Z,4.40
2018-11-26T16:02:42.377Z,4.40
2018-11-26T16:05:12.128Z,4.30
2018-11-26T16:07:41.041Z,4.30
2018-11-26T16:10:10.986Z,4.40
2018-11-26T16:12:39.566Z,4.40
2018-11-26T16:15:10.725Z,4.40
2018-11-26T16:17:39.152Z,4.30
2018-11-26T16:20:11.235Z,4.30
2018-11-26T16:22:39.686Z,4.30
2018-11-26T16:25:14.538Z,4.30
2018-11-26T16:27:42.990Z,4.30
2018-11-26T16:30:17.256Z,4.30
2018-11-26T16:32:47.046Z,4.30
2018-11-26T16:35:20.774Z,4.30
2018-11-26T16:37:49.262Z,4.30
2018-11-26T16:40:18.059Z,4.20
2018-11-26T16:42:46.488Z,4.30
2018-11-26T16:45:20.658Z,4.20
2018-11-26T16:47:50.333Z,4.20
2018-11-26T16:50:19.970Z,4.20
2018-11-26T16:52:48.414Z,4.20
2018-11-26T16:55:17.378Z,4.20
2018-11-26T16:57:45.954Z,4.10
2018-11-26T17:00:30.324Z,4.10
2018-11-26T17:03:00.702Z,4.10
2018-11-26T17:05:45.497Z,4.00
2018-11-26T17:08:14.885Z,4.10
2018-11-26T17:10:43.489Z,4.00
2018-11-26T17:13:14.379Z,4.00
2018-11-26T17:15:42.874Z,4.00
2018-11-26T17:18:11.320Z,4.00
2018-11-26T17:20:39.714Z,3.90
2018-11-26T17:23:08.361Z,3.90
2018-11-26T17:25:36.799Z,4.00
2018-11-26T17:28:05.570Z,4.00
2018-11-26T17:30:33.989Z,4.00
2018-11-26T17:33:04.387Z,3.90
2018-11-26T17:35:32.998Z,3.90
2018-11-26T17:38:01.402Z,3.90
2018-11-26T17:40:29.894Z,3.90
2018-11-26T17:42:58.312Z,3.80
2018-11-26T17:45:26.965Z,3.80
2018-11-26T17:47:59.895Z,3.80
2018-11-26T17:50:44.846Z,3.80
2018-11-26T17:53:17.526Z,3.70
2018-11-26T17:55:54.022Z,3.70
2018-11-26T17:58:23.698Z,3.70
2018-11-26T18:00:57.618Z,3.70
2018-11-26T18:03:26.062Z,3.70
2018-11-26T18:05:54.470Z,3.70
2018-11-26T18:08:22.859Z,3.70
2018-11-26T18:10:51.430Z,3.70
2018-11-26T18:13:19.828Z,3.60
2018-11-26T18:15:48.250Z,3.60
2018-11-26T18:18:17.897Z,3.60
2018-11-26T18:20:46.910Z,3.60
2018-11-26T18:23:15.375Z,3.50
2018-11-26T18:25:44.089Z,3.50
2018-11-26T18:28:15.714Z,3.50
2018-11-26T18:30:46.566Z,3.60
2018-11-26T18:33:14.977Z,3.50
2018-11-26T18:35:43.861Z,3.50
2018-11-26T18:38:12.355Z,3.50
2018-11-26T18:40:42.194Z,3.50
2018-11-26T18:43:10.622Z,3.50
2018-11-26T18:45:39.950Z,3.50
2018-11-26T18:48:09.482Z,3.50
2018-11-26T18:50:37.986Z,3.50
2018-11-26T18:53:07.541Z,3.40
2018-11-26T18:55:37.177Z,3.40
2018-11-26T18:58:05.098Z,3.40
2018-11-26T19:00:45.242Z,3.40
2018-11-26T19:03:17.994Z,3.40
2018-11-26T19:05:47.081Z,3.50
2018-11-26T19:08:15.482Z,3.40
2018-11-26T19:10:44.187Z,3.40
2018-11-26T19:13:16.094Z,3.40
2018-11-26T19:15:46.087Z,3.40
2018-11-26T19:18:18.856Z,3.30
2018-11-26T19:20:47.313Z,3.40
2018-11-26T19:23:15.702Z,3.40
2018-11-26T19:25:44.590Z,3.30
2018-11-26T19:28:13.010Z,3.30
2018-11-26T19:30:41.429Z,3.30
2018-11-26T19:33:10.470Z,3.30
2018-11-26T19:35:38.914Z,3.30
2018-11-26T19:38:07.961Z,3.30
2018-11-26T19:40:37.638Z,3.30
2018-11-26T19:43:06.565Z,3.30
2018-11-26T19:45:35.069Z,3.30
2018-11-26T19:48:03.499Z,3.30
2018-11-26T19:50:31.964Z,3.30
2018-11-26T19:53:00.369Z,3.20
2018-11-26T19:55:28.839Z,3.30
2018-11-26T19:57:58.257Z,3.20
2018-11-26T20:00:28.961Z,3.20
2018-11-26T20:03:10.510Z,3.20
2018-11-26T20:05:45.918Z,3.20
2018-11-26T20:08:14.336Z,3.20
2018-11-26T20:10:42.734Z,3.20
2018-11-26T20:13:11.167Z,3.20
2018-11-26T20:15:39.558Z,3.20
2018-11-26T20:18:08.006Z,3.20
2018-11-26T20:20:36.386Z,3.20
2018-11-26T20:23:04.802Z,3.20
2018-11-26T20:25:33.206Z,3.20
2018-11-26T20:28:01.610Z,3.20
2018-11-26T20:30:30.049Z,3.20
2018-11-26T20:32:58.458Z,3.20
2018-11-26T20:35:26.902Z,3.20
2018-11-26T20:37:55.318Z,3.10
2018-11-26T20:40:23.720Z,3.10
2018-11-26T20:42:53.457Z,3.10
2018-11-26T20:45:21.906Z,3.10
2018-11-26T20:47:51.145Z,3.10
2018-11-26T20:50:22.897Z,3.10
2018-11-26T20:52:51.301Z,3.10
2018-11-26T20:55:21.606Z,3.10
2018-11-26T20:57:51.017Z,3.10
2018-11-26T21:00:21.745Z,3.10
2018-11-26T21:02:52.405Z,3.10
2018-11-26T21:05:20.826Z,3.10
2018-11-26T21:07:49.245Z,3.10
2018-11-26T21:10:17.771Z,3.10
2018-11-26T21:12:46.229Z,3.00
2018-11-26T21:15:17.835Z,3.10
2018-11-26T21:17:48.482Z,3.10
2018-11-26T21:20:50.209Z,3.10
2018-11-26T21:23:23.966Z,3.10
2018-11-26T21:25:52.630Z,3.10
2018-11-26T21:28:21.022Z,3.10
2018-11-26T21:30:52.035Z,3.10
2018-11-26T21:33:17.890Z,3.10
2018-11-26T21:35:46.301Z,3.10
2018-11-26T21:38:14.694Z,3.10
2018-11-26T21:40:43.118Z,3.10
2018-11-26T21:43:11.937Z,3.10
2018-11-26T21:45:58.949Z,3.10
2018-11-26T21:48:27.354Z,3.10
2018-11-26T21:50:55.769Z,3.10
2018-11-26T21:53:24.198Z,3.10
2018-11-26T21:55:52.713Z,3.10
2018-11-26T21:58:21.122Z,3.10
2018-11-26T22:00:50.764Z,3.10
2018-11-26T22:03:19.229Z,3.10
2018-11-26T22:05:47.642Z,3.10
2018-11-26T22:08:16.034Z,3.10
2018-11-26T22:10:44.774Z,3.10
2018-11-26T22:13:14.887Z,3.10
2018-11-26T22:15:43.302Z,3.10
2018-11-26T22:18:11.717Z,3.10
2018-11-26T22:20:40.158Z,3.10
2018-11-26T22:23:08.684Z,3.10
2018-11-26T22:25:37.242Z,3.00
2018-11-26T22:28:07.517Z,3.00
2018-11-26T22:30:36.749Z,3.10
2018-11-26T22:33:05.405Z,3.00
2018-11-26T22:35:33.817Z,3.10
2018-11-26T22:38:02.250Z,3.00
2018-11-26T22:40:30.682Z,3.00
2018-11-26T22:42:59.102Z,3.00
2018-11-26T22:45:30.558Z,3.00
2018-11-26T22:48:07.982Z,3.10
2018-11-26T22:50:37.597Z,3.10
2018-11-26T22:53:07.231Z,3.00
2018-11-26T22:55:35.893Z,3.10
2018-11-26T22:58:04.367Z,3.10
2018-11-26T23:00:42.746Z,3.10
2018-11-26T23:03:12.803Z,3.00
2018-11-26T23:05:41.209Z,3.00
2018-11-26T23:08:09.628Z,3.00
2018-11-26T23:10:38.052Z,3.10
2018-11-26T23:13:07.498Z,3.00
2018-11-26T23:15:35.902Z,3.10
2018-11-26T23:18:04.359Z,3.10
2018-11-26T23:20:32.778Z,3.10
2018-11-26T23:23:01.185Z,3.00
2018-11-26T23:25:29.581Z,3.10
2018-11-26T23:27:58.001Z,3.00
2018-11-26T23:30:27.734Z,3.00
2018-11-26T23:33:02.245Z,3.10
2018-11-26T23:35:30.645Z,3.10
2018-11-26T23:37:59.094Z,3.10
2018-11-26T23:40:27.494Z,3.10
2018-11-26T23:42:55.910Z,3.10
2018-11-26T23:45:26.316Z,3.10
2018-11-26T23:47:54.729Z,3.10
2018-11-26T23:50:23.129Z,3.10
2018-11-26T23:52:51.558Z,3.10
2018-11-26T23:55:20.819Z,3.10
2018-11-26T23:57:49.271Z,3.10
